Time;durP1;ratioP1;P1;durP2;ratioP2;P2;SDS_P1;SDS_P2;PMS_P1;PMS_P2;Temp;Humidity;BMP_temperature;BMP_pressure;BME280_temperature;BME280_humidity;BME280_pressure;Samples;Min_cycle;Max_cycle;Signal;HPM_P1;HPM_P2
2022/12/15 00:40:13;;;;;;;;;21.75;17.50;;;;;-1.10;72.48;100614.41;5073490;28;12283;-66
2022/12/15 00:42:39;;;;;;;;;20.50;20.50;;;;;-1.10;72.43;100616.22;5071655;28;11569;-65
2022/12/15 00:45:06;;;;;;;;;26.50;22.75;;;;;-1.12;72.83;100621.63;5064014;28;11563;-66
2022/12/15 00:47:33;;;;;;;;;31.25;27.00;;;;;-1.11;73.05;100623.31;5062345;28;11590;-64
2022/12/15 01:20:20;;;;;;;;;25.75;20.50;;;;;-0.96;73.30;100623.03;5071095;28;12406;-64
2022/12/15 01:22:52;;;;;;;;;25.25;21.50;;;;;-0.97;73.30;100621.31;5062949;28;11561;-65
2022/12/15 01:25:22;;;;;;;;;28.25;25.50;;;;;-1.00;73.47;100633.84;5070025;28;11588;-65
2022/12/15 01:27:49;;;;;;;;;20.75;19.00;;;;;-1.02;73.56;100627.00;5072451;28;11584;-64
2022/12/15 01:30:18;;;;;;;;;21.75;20.50;;;;;-1.05;73.12;100628.09;5071426;28;11683;-66
2022/12/15 01:32:44;;;;;;;;;21.75;18.50;;;;;-1.03;72.99;100635.88;5070780;28;12543;-66
2022/12/15 01:35:12;;;;;;;;;22.00;22.00;;;;;-1.05;73.46;100638.66;5063316;28;12370;-67
2022/12/15 01:37:38;;;;;;;;;20.00;14.00;;;;;-1.05;73.52;100641.31;5070367;28;11578;-67
2022/12/15 01:42:51;;;;;;;;;20.50;18.25;;;;;-1.07;72.84;100647.66;5072707;28;11536;-63
2022/12/15 01:45:24;;;;;;;;;17.00;16.50;;;;;-1.08;72.61;100648.63;5071917;28;11665;-65
2022/12/15 01:47:57;;;;;;;;;21.00;19.25;;;;;-1.10;72.82;100654.03;5068308;28;11593;-65
2022/12/15 01:50:25;;;;;;;;;21.50;17.50;;;;;-1.13;72.64;100661.38;5062595;28;11561;-67
2022/12/15 01:52:53;;;;;;;;;21.00;19.75;;;;;-1.17;72.45;100655.50;5060315;28;12288;-66
2022/12/15 01:55:23;;;;;;;;;25.75;20.00;;;;;-1.19;72.46;100654.78;5070211;28;11525;-66
2022/12/15 01:57:56;;;;;;;;;25.50;24.25;;;;;-1.20;73.13;100661.03;5072348;28;11559;-65
2022/12/15 02:00:22;;;;;;;;;19.50;18.75;;;;;-1.22;72.75;100657.66;5069731;28;11710;-65
2022/12/15 02:02:50;;;;;;;;;24.25;21.50;;;;;-1.20;73.10;100654.91;5063291;28;11558;-64
2022/12/15 02:05:17;;;;;;;;;18.50;16.00;;;;;-1.21;73.08;100658.53;5071533;28;11550;-67
2022/12/15 02:07:43;;;;;;;;;19.00;16.50;;;;;-1.20;72.69;100658.38;5072055;28;11602;-66
2022/12/15 02:10:10;;;;;;;;;19.50;18.25;;;;;-1.19;73.15;100656.59;5071304;28;12283;-67
2022/12/15 02:12:43;;;;;;;;;24.75;21.25;;;;;-1.19;72.69;100661.88;5070340;28;12436;-66
2022/12/15 02:15:31;;;;;;;;;21.50;21.50;;;;;-1.21;72.81;100662.00;5064897;28;11557;-66
2022/12/15 02:18:14;;;;;;;;;28.75;21.25;;;;;-1.21;73.01;100661.16;5071606;28;11630;-67
2022/12/15 02:20:59;;;;;;;;;21.00;19.00;;;;;-1.24;72.84;100672.81;5071497;28;11564;-67
2022/12/15 02:24:01;;;;;;;;;22.75;16.00;;;;;-1.23;73.20;100663.91;5070205;28;11551;-66
2022/12/15 02:26:46;;;;;;;;;21.50;20.25;;;;;-1.21;73.52;100659.34;5068236;28;11566;-67
2022/12/15 02:29:39;;;;;;;;;19.00;15.75;;;;;-1.18;73.79;100652.97;5058738;28;11593;-67
2022/12/15 02:32:13;;;;;;;;;28.00;20.50;;;;;-1.15;73.52;100665.94;5068889;28;12297;-67
2022/12/15 02:34:46;;;;;;;;;19.00;17.50;;;;;-1.11;73.75;100665.56;5070632;28;11592;-65
2022/12/15 02:37:17;;;;;;;;;24.00;19.25;;;;;-1.10;73.24;100675.16;5070850;28;11630;-65
2022/12/15 02:39:44;;;;;;;;;22.00;19.50;;;;;-1.12;72.90;100671.81;5061501;28;11647;-65
2022/12/15 02:42:11;;;;;;;;;16.25;15.75;;;;;-1.11;73.31;100675.28;5067880;28;11594;-65
2022/12/15 02:44:43;;;;;;;;;15.25;11.00;;;;;-1.16;73.06;100665.09;5070120;28;11627;-66
2022/12/15 02:47:20;;;;;;;;;22.50;17.25;;;;;-1.17;73.28;100670.50;5067348;28;11594;-65
2022/12/15 02:49:59;;;;;;;;;20.50;19.50;;;;;-1.21;73.55;100667.28;5070586;28;12343;-66
2022/12/15 02:53:05;;;;;;;;;20.50;15.50;;;;;-1.20;73.45;100670.75;5055602;28;11596;-65
2022/12/15 02:55:57;;;;;;;;;23.00;19.00;;;;;-1.22;73.61;100670.03;5062491;28;11555;-65
2022/12/15 02:58:52;;;;;;;;;18.75;15.25;;;;;-1.23;73.14;100668.34;5069490;28;11561;-67
2022/12/15 03:01:44;;;;;;;;;15.75;14.00;;;;;-1.23;73.55;100687.66;5067247;28;11599;-65
2022/12/15 03:04:12;;;;;;;;;21.00;15.00;;;;;-1.21;73.54;100675.19;5065154;28;12253;-63
2022/12/15 03:06:38;;;;;;;;;15.50;15.50;;;;;-1.19;73.30;100685.63;5069522;28;11565;-65
2022/12/15 03:09:05;;;;;;;;;18.00;12.25;;;;;-1.18;73.34;100680.22;5070883;28;11697;-66
2022/12/15 03:11:31;;;;;;;;;14.00;14.00;;;;;-1.17;73.31;100687.19;5070986;28;11570;-67
2022/12/15 03:13:58;;;;;;;;;15.00;14.50;;;;;-1.15;73.29;100690.53;5070233;28;11548;-67
2022/12/15 03:16:24;;;;;;;;;16.00;15.00;;;;;-1.15;73.17;100681.78;5069538;28;11567;-65
2022/12/15 03:18:51;;;;;;;;;15.75;12.25;;;;;-1.16;73.58;100683.59;5061040;28;11550;-67
2022/12/15 03:21:17;;;;;;;;;15.50;13.00;;;;;-1.14;73.78;100688.72;5068931;28;11582;-65
2022/12/15 03:23:44;;;;;;;;;12.75;12.00;;;;;-1.12;73.12;100690.31;5070958;28;11588;-65
2022/12/15 03:26:10;;;;;;;;;16.75;12.25;;;;;-1.13;72.93;100696.56;5070526;28;11577;-65
2022/12/15 03:28:37;;;;;;;;;17.25;13.00;;;;;-1.14;72.82;100684.28;5069179;28;11600;-65
2022/12/15 03:31:04;;;;;;;;;12.25;12.25;;;;;-1.21;73.33;100688.41;5067112;28;12461;-66
2022/12/15 03:33:32;;;;;;;;;9.50;8.00;;;;;-1.21;73.31;100696.34;5059300;28;11590;-66
2022/12/15 03:35:59;;;;;;;;;15.75;15.25;;;;;-1.23;73.03;100695.59;5068637;28;11590;-64
2022/12/15 03:38:26;;;;;;;;;20.00;16.00;;;;;-1.20;73.48;100697.16;5070957;28;11560;-65
2022/12/15 03:40:52;;;;;;;;;20.25;16.00;;;;;-1.21;73.63;100695.50;5070542;28;11683;-66
2022/12/15 03:43:19;;;;;;;;;15.00;13.00;;;;;-1.20;73.42;100705.09;5065970;28;11612;-65
2022/12/15 03:45:45;;;;;;;;;17.75;13.25;;;;;-1.22;73.69;100704.34;5069366;28;11748;-65
2022/12/15 03:48:12;;;;;;;;;9.00;6.25;;;;;-1.22;73.70;100694.63;5070167;28;11553;-66
2022/12/15 03:50:39;;;;;;;;;19.25;17.00;;;;;-1.22;73.15;100701.72;5069416;28;11504;-65
2022/12/15 03:53:06;;;;;;;;;21.00;17.00;;;;;-1.20;73.61;100705.91;5065691;28;11658;-65
2022/12/15 03:55:34;;;;;;;;;19.00;15.00;;;;;-1.22;73.54;100697.25;5068062;28;11591;-66
2022/12/15 03:58:00;;;;;;;;;12.75;12.75;;;;;-1.20;73.96;100698.00;5063737;28;11538;-64
2022/12/15 04:00:27;;;;;;;;;15.50;14.25;;;;;-1.17;74.00;100700.41;5069470;28;12289;-66
2022/12/15 04:02:53;;;;;;;;;12.50;12.50;;;;;-1.17;73.44;100705.69;5069616;28;11589;-66
2022/12/15 04:05:32;;;;;;;;;20.75;15.25;;;;;-1.15;73.42;100687.06;5069448;28;11600;-66
2022/12/15 04:08:00;;;;;;;;;14.50;12.25;;;;;-1.16;73.44;100691.50;5062727;28;11549;-65
2022/12/15 04:10:29;;;;;;;;;21.00;17.75;;;;;-1.18;74.07;100693.41;5063010;28;11595;-66
2022/12/15 04:13:05;;;;;;;;;13.00;11.00;;;;;-1.15;74.43;100702.91;5069188;28;11578;-66
2022/12/15 04:15:33;;;;;;;;;12.50;11.00;;;;;-1.16;74.13;100691.50;5068785;28;11508;-67
2022/12/15 04:18:05;;;;;;;;;12.75;10.00;;;;;-1.15;74.10;100687.91;5069726;28;11592;-67
2022/12/15 04:20:32;;;;;;;;;17.00;12.25;;;;;-1.16;74.49;100688.88;5069705;28;11576;-64
2022/12/15 04:22:59;;;;;;;;;19.00;12.75;;;;;-1.15;74.46;100689.72;5062646;28;12220;-65
2022/12/15 05:32:03;;;;;;;;;15.75;14.50;;;;;-1.10;75.66;100725.34;5069509;28;11545;-63
2022/12/15 05:34:31;;;;;;;;;12.75;12.00;;;;;-1.09;76.04;100727.03;5071792;28;12771;-66
2022/12/15 05:37:00;;;;;;;;;18.00;14.50;;;;;-1.11;75.32;100726.31;5070717;28;11554;-66
2022/12/15 05:39:26;;;;;;;;;15.00;13.00;;;;;-1.12;75.14;100727.28;5065160;28;11584;-66
2022/12/15 05:41:54;;;;;;;;;12.25;10.50;;;;;-1.12;75.79;100732.56;5075858;28;11540;-65
2022/12/15 05:44:22;;;;;;;;;13.00;10.50;;;;;-1.13;75.75;100730.06;5069761;28;11533;-65
2022/12/15 05:46:49;;;;;;;;;11.25;11.00;;;;;-1.13;75.04;100743.25;5071498;28;11621;-62
2022/12/15 05:49:16;;;;;;;;;11.00;10.25;;;;;-1.15;75.21;100735.44;5072599;28;11554;-65
2022/12/15 05:51:45;;;;;;;;;15.00;11.00;;;;;-1.17;75.42;100726.81;5069342;28;12532;-64
2022/12/15 05:54:14;;;;;;;;;16.50;14.00;;;;;-1.18;74.72;100734.84;5063501;28;11586;-68
2022/12/15 05:56:41;;;;;;;;;16.00;15.25;;;;;-1.23;75.46;100732.56;5069854;28;11648;-66
2022/12/15 05:59:07;;;;;;;;;24.00;20.00;;;;;-1.27;75.41;100726.69;5071954;28;11559;-65
2022/12/15 06:01:34;;;;;;;;;16.50;15.75;;;;;-1.22;76.00;100734.25;5071881;28;11573;-64
2022/12/15 06:04:00;;;;;;;;;17.50;16.25;;;;;-1.18;75.40;100737.47;5071868;28;12322;-65
2022/12/15 06:06:27;;;;;;;;;14.75;12.50;;;;;-1.18;76.00;100740.97;5063131;28;11598;-67
2022/12/15 06:08:54;;;;;;;;;18.75;16.00;;;;;-1.15;76.36;100737.25;5071906;28;11588;-66
2022/12/15 06:11:21;;;;;;;;;16.25;13.50;;;;;-1.14;76.05;100734.47;5070969;28;11557;-65
2022/12/15 06:13:48;;;;;;;;;14.00;14.00;;;;;-1.11;75.65;100736.88;5070531;28;12386;-64
2022/12/15 06:16:17;;;;;;;;;14.25;13.00;;;;;-1.10;75.89;100741.19;5070816;28;11564;-66
2022/12/15 06:18:49;;;;;;;;;14.75;12.50;;;;;-1.09;76.12;100744.69;5062011;28;11647;-66
2022/12/15 06:21:20;;;;;;;;;15.50;15.25;;;;;-1.09;76.00;100747.34;5070714;28;11693;-65
2022/12/15 06:23:46;;;;;;;;;11.25;11.25;;;;;-1.11;76.12;100755.38;5066121;28;11631;-65
2022/12/15 06:26:22;;;;;;;;;17.25;13.50;;;;;-1.11;75.87;100757.19;5070588;28;11565;-66
2022/12/15 06:28:49;;;;;;;;;15.00;13.00;;;;;-1.12;75.65;100763.44;5070533;28;11577;-66
2022/12/15 06:31:21;;;;;;;;;17.50;12.50;;;;;-1.13;75.86;100759.13;5064552;28;11545;-66
2022/12/15 06:33:49;;;;;;;;;17.00;16.25;;;;;-1.16;75.10;100760.19;5068787;28;11589;-66
2022/12/15 06:36:18;;;;;;;;;22.00;18.75;;;;;-1.15;75.43;100761.84;5070081;28;11716;-66
2022/12/15 06:38:46;;;;;;;;;21.50;19.50;;;;;-1.15;75.28;100756.56;5071045;28;11681;-66
2022/12/15 06:41:17;;;;;;;;;15.50;15.50;;;;;-1.14;75.47;100760.88;5071349;28;11574;-65
2022/12/15 06:43:56;;;;;;;;;20.50;18.50;;;;;-1.13;76.00;100759.94;5065253;28;11601;-66
2022/12/15 06:46:25;;;;;;;;;15.75;15.75;;;;;-1.12;75.82;100756.34;5065851;28;11628;-65
2022/12/15 06:48:52;;;;;;;;;13.50;13.00;;;;;-1.08;75.52;100759.59;5070244;28;11594;-65
2022/12/15 06:51:18;;;;;;;;;17.75;12.50;;;;;-1.09;75.65;100766.66;5068600;28;11551;-66
2022/12/15 06:53:47;;;;;;;;;24.00;20.00;;;;;-1.09;76.07;100765.84;5067662;28;11676;-66
2022/12/15 06:56:20;;;;;;;;;23.00;18.75;;;;;-1.09;76.18;100761.38;5070499;28;11547;-68
2022/12/15 06:58:52;;;;;;;;;17.00;16.25;;;;;-1.07;75.85;100774.47;5061544;28;12394;-66
2022/12/15 07:01:20;;;;;;;;;19.25;15.00;;;;;-1.05;76.55;100770.75;5066924;28;11574;-66
2022/12/15 07:03:47;;;;;;;;;22.75;16.75;;;;;-1.05;76.11;100772.56;5074899;28;11583;-67
2022/12/15 07:06:15;;;;;;;;;15.25;15.25;;;;;-1.08;76.50;100783.34;5071824;28;11616;-66
2022/12/15 07:08:42;;;;;;;;;20.50;13.00;;;;;-1.04;76.42;100772.41;5066067;28;11645;-65
2022/12/15 07:11:11;;;;;;;;;21.75;17.50;;;;;-1.02;76.50;100767.84;5062917;28;11556;-66
2022/12/15 07:13:38;;;;;;;;;19.00;16.50;;;;;-1.01;76.24;100769.53;5070574;28;11700;-65
2022/12/15 07:16:06;;;;;;;;;21.50;17.75;;;;;-1.01;76.18;100769.53;5081852;28;12359;-65
2022/12/15 07:18:33;;;;;;;;;21.75;20.25;;;;;-0.99;76.79;100766.78;5064136;28;11584;-66
2022/12/15 07:21:04;;;;;;;;;19.00;16.75;;;;;-0.98;76.60;100775.53;5069635;28;11559;-65
2022/12/15 07:23:32;;;;;;;;;18.25;16.00;;;;;-0.92;77.02;100769.78;5065116;28;11529;-66
2022/12/15 07:26:18;;;;;;;;;15.50;15.50;;;;;-0.89;77.38;100769.50;5053649;28;11591;-65
2022/12/15 07:28:45;;;;;;;;;14.75;14.75;;;;;-0.87;76.94;100771.06;5070233;28;12336;-64
2022/12/15 07:31:11;;;;;;;;;26.50;22.00;;;;;-0.37;84.01;100773.25;5069812;28;11680;-72
2022/12/15 07:33:38;;;;;;;;;21.50;16.50;;;;;0.01;80.68;100778.03;5064629;28;11577;-64
2022/12/15 07:36:07;;;;;;;;;24.00;24.00;;;;;0.03;78.86;100780.53;5064629;28;11563;-65
2022/12/15 07:38:34;;;;;;;;;16.50;15.00;;;;;-0.10;77.05;100776.25;5069450;28;11630;-64
2022/12/15 07:41:03;;;;;;;;;19.00;17.50;;;;;-0.21;76.51;100786.88;5064224;28;11724;-65
2022/12/15 07:43:29;;;;;;;;;18.25;16.00;;;;;-0.39;76.20;100791.88;5062873;28;11572;-66
2022/12/15 07:45:57;;;;;;;;;18.25;18.25;;;;;-0.54;75.80;100793.97;5059183;28;12254;-65
2022/12/15 07:48:24;;;;;;;;;22.00;19.50;;;;;-0.64;76.42;100786.91;5059939;28;12370;-67
2022/12/15 07:50:55;;;;;;;;;16.50;15.50;;;;;-0.69;76.52;100791.72;5063263;28;11592;-66
2022/12/15 07:53:32;;;;;;;;;15.25;14.50;;;;;-0.69;76.80;100784.59;5049547;28;11598;-65
2022/12/15 07:56:00;;;;;;;;;21.00;18.50;;;;;-0.70;76.07;100782.94;5054396;28;11575;-64
2022/12/15 07:58:36;;;;;;;;;22.00;17.50;;;;;-0.73;76.22;100790.28;5065886;28;11652;-63
2022/12/15 08:01:08;;;;;;;;;18.75;18.00;;;;;-0.73;76.49;100793.75;5063774;28;12294;-65
2022/12/15 08:03:36;;;;;;;;;17.50;15.75;;;;;-0.73;76.31;100793.75;5063941;28;12287;-65
2022/12/15 08:06:10;;;;;;;;;15.00;13.50;;;;;-0.75;75.96;100787.75;5071741;28;11663;-66
2022/12/15 08:08:38;;;;;;;;;24.75;18.00;;;;;-0.76;76.32;100797.50;5080188;28;11704;-65
2022/12/15 08:11:10;;;;;;;;;15.50;13.50;;;;;-0.78;76.20;100790.63;5059287;28;11659;-65
2022/12/15 08:13:37;;;;;;;;;12.50;11.00;;;;;-0.76;76.09;100801.94;5064410;28;11560;-65
2022/12/15 08:16:24;;;;;;;;;15.75;15.50;;;;;-0.79;75.82;100796.91;5060103;28;11609;-66
2022/12/15 08:18:51;;;;;;;;;16.00;14.00;;;;;-0.81;75.86;100796.16;5054846;28;11595;-67
2022/12/15 08:21:17;;;;;;;;;18.00;18.00;;;;;-0.83;76.35;100803.38;5066404;28;11595;-65
2022/12/15 08:23:44;;;;;;;;;16.00;13.50;;;;;-0.83;76.25;100800.75;5063242;28;11573;-66
2022/12/15 08:26:13;;;;;;;;;15.50;15.00;;;;;-0.80;76.93;100811.91;5064406;28;11624;-66
2022/12/15 08:28:40;;;;;;;;;24.00;20.00;;;;;-0.79;76.45;100821.53;5068091;28;11651;-65
2022/12/15 08:31:09;;;;;;;;;21.00;20.00;;;;;-0.78;77.00;100822.34;5069354;28;11573;-66
2022/12/15 08:33:36;;;;;;;;;21.50;19.00;;;;;-0.73;76.63;100832.56;5051542;28;11704;-65
2022/12/15 08:36:06;;;;;;;;;21.00;20.00;;;;;-0.69;76.55;100828.72;5071490;28;11552;-65
2022/12/15 08:38:35;;;;;;;;;21.50;18.00;;;;;-0.67;77.26;100832.91;5072382;28;12396;-65
2022/12/15 08:41:09;;;;;;;;;28.00;24.00;;;;;-0.64;77.08;100830.03;5073118;28;11553;-67
2022/12/15 08:43:36;;;;;;;;;15.25;13.00;;;;;-0.60;77.15;100826.19;5055568;28;11588;-65
2022/12/15 08:46:12;;;;;;;;;28.75;22.00;;;;;-0.55;77.24;100834.59;5073275;28;11543;-65
2022/12/15 08:48:39;;;;;;;;;19.25;19.25;;;;;-0.54;77.46;100846.84;5073953;28;11588;-63
2022/12/15 08:51:06;;;;;;;;;17.50;14.00;;;;;-0.50;77.09;100847.44;5073176;28;11568;-65
2022/12/15 08:53:33;;;;;;;;;26.50;21.00;;;;;-0.50;76.83;100845.63;5074072;28;11552;-65
2022/12/15 08:56:11;;;;;;;;;29.50;23.50;;;;;-0.48;76.64;100845.53;5073083;28;11556;-64
2022/12/15 08:58:38;;;;;;;;;27.25;24.25;;;;;-0.44;77.18;100846.97;5073415;28;11560;-65
2022/12/15 09:01:10;;;;;;;;;19.25;17.50;;;;;-0.39;77.43;100839.50;5073129;28;11576;-63
2022/12/15 09:03:44;;;;;;;;;18.00;16.25;;;;;-0.40;76.73;100842.28;5074211;28;11552;-64
2022/12/15 09:06:15;;;;;;;;;4.50;3.25;;;;;-0.41;77.33;100838.75;5072240;28;11584;-64
2022/12/15 09:08:42;;;;;;;;;21.50;16.00;;;;;-0.38;77.01;100824.47;5075285;28;11501;-62
2022/12/15 09:11:08;;;;;;;;;21.50;19.00;;;;;-0.31;77.53;100826.47;5055111;28;12371;-65
2022/12/15 09:13:35;;;;;;;;;17.50;15.50;;;;;-0.23;77.29;100823.22;5073544;28;12272;-64
2022/12/15 09:16:05;;;;;;;;;26.00;20.25;;;;;-0.14;77.20;100818.97;5073079;28;11596;-65
2022/12/15 09:18:35;;;;;;;;;18.00;16.25;;;;;-0.10;77.27;100831.81;5073388;28;11581;-64
2022/12/15 09:21:05;;;;;;;;;16.50;15.50;;;;;-0.03;77.28;100829.53;5072695;28;11668;-65
2022/12/15 09:23:32;;;;;;;;;20.50;18.00;;;;;0.01;77.09;100835.41;5073978;28;11548;-63
2022/12/15 09:26:05;;;;;;;;;18.50;18.50;;;;;0.01;76.82;100838.91;5078163;28;11668;-64
2022/12/15 09:28:32;;;;;;;;;16.75;15.00;;;;;0.06;77.10;100841.16;5073150;28;12195;-64
2022/12/15 09:31:10;;;;;;;;;19.75;15.25;;;;;0.15;77.00;100848.31;5072372;28;11647;-64
2022/12/15 09:33:37;;;;;;;;;15.50;13.00;;;;;0.21;77.32;100840.72;5072949;28;11548;-64
2022/12/15 09:36:05;;;;;;;;;16.00;15.75;;;;;0.28;76.96;100848.16;5071892;28;11634;-63
2022/12/15 09:38:37;;;;;;;;;18.50;12.50;;;;;0.31;76.32;100843.44;5071709;28;11688;-65
2022/12/15 09:41:12;;;;;;;;;20.50;17.25;;;;;0.31;75.90;100846.09;5072817;28;11559;-64
2022/12/15 09:43:46;;;;;;;;;16.50;13.00;;;;;0.31;76.46;100851.38;5072175;28;11576;-64
2022/12/15 09:46:43;;;;;;;;;12.75;12.50;;;;;0.34;76.41;100866.19;5071383;28;11573;-64
2022/12/15 09:49:27;;;;;;;;;14.00;12.50;;;;;0.40;76.25;100871.78;5072880;28;11598;-64
2022/12/15 09:52:04;;;;;;;;;17.50;15.25;;;;;0.47;76.42;100864.19;5052083;28;11574;-64
2022/12/15 09:54:37;;;;;;;;;16.50;16.00;;;;;0.51;76.66;100855.00;5054634;28;11571;-62
2022/12/15 09:57:12;;;;;;;;;23.75;23.75;;;;;0.63;76.37;100869.03;5072657;28;11629;-64
2022/12/15 09:59:54;;;;;;;;;25.50;21.50;;;;;0.69;76.41;100865.88;5071032;28;11664;-61
2022/12/15 10:02:46;;;;;;;;;20.25;20.25;;;;;0.70;76.58;100872.84;5072006;28;11726;-65
2022/12/15 10:05:22;;;;;;;;;27.50;24.50;;;;;0.71;76.82;100875.38;5071130;28;11578;-64
2022/12/15 10:08:03;;;;;;;;;20.50;20.50;;;;;0.70;76.68;100873.69;5072023;28;11584;-65
2022/12/15 10:10:54;;;;;;;;;22.00;21.25;;;;;0.77;76.89;100878.47;5071779;28;11599;-65
2022/12/15 10:13:32;;;;;;;;;23.00;18.50;;;;;0.82;76.98;100877.13;5072029;28;11546;-63
2022/12/15 10:16:04;;;;;;;;;20.50;18.75;;;;;0.83;76.82;100870.00;5071376;28;11570;-64
2022/12/15 10:18:45;;;;;;;;;17.75;17.75;;;;;0.86;76.49;100875.03;5070741;28;11540;-65
2022/12/15 10:21:15;;;;;;;;;21.25;19.50;;;;;0.84;76.56;100872.50;5071419;28;11576;-66
2022/12/15 10:23:42;;;;;;;;;22.50;17.00;;;;;0.83;76.65;100870.00;5071586;28;11532;-65
2022/12/15 10:26:20;;;;;;;;;17.75;17.00;;;;;0.82;76.53;100863.88;5071640;28;11578;-65
2022/12/15 10:29:15;;;;;;;;;19.00;19.00;;;;;0.78;76.73;100865.09;5071690;28;11572;-63
2022/12/15 10:32:18;;;;;;;;;22.00;22.00;;;;;0.81;77.18;100869.28;5070961;28;11560;-63
2022/12/15 10:34:44;;;;;;;;;18.50;15.00;;;;;0.88;77.27;100873.94;5069694;28;11577;-64
2022/12/15 10:37:19;;;;;;;;;18.25;17.50;;;;;0.96;77.11;100879.41;5071003;28;11580;-62
2022/12/15 10:39:48;;;;;;;;;20.25;18.75;;;;;1.03;77.00;100869.13;5070905;28;11568;-65
2022/12/15 10:42:15;;;;;;;;;15.75;15.00;;;;;1.12;77.19;100870.97;5070445;28;12417;-64
2022/12/15 10:44:44;;;;;;;;;19.75;19.75;;;;;1.15;76.86;100864.59;5070886;28;11556;-64
2022/12/15 10:47:31;;;;;;;;;23.75;22.00;;;;;1.16;76.67;100867.09;5071362;28;11543;-65
2022/12/15 10:50:20;;;;;;;;;16.75;15.75;;;;;1.18;76.61;100864.34;5052490;28;11687;-64
2022/12/15 10:52:50;;;;;;;;;25.00;16.75;;;;;1.14;76.32;100868.22;5071547;28;11531;-64
2022/12/15 10:55:36;;;;;;;;;22.50;20.25;;;;;1.12;76.68;100870.16;5070985;28;11588;-65
2022/12/15 10:58:14;;;;;;;;;18.75;18.75;;;;;1.13;77.10;100866.53;5070895;28;11701;-64
2022/12/15 11:00:41;;;;;;;;;17.50;16.50;;;;;1.11;76.83;100869.31;5070788;28;11574;-65
2022/12/15 11:03:21;;;;;;;;;19.25;18.25;;;;;1.16;77.25;100863.59;5070818;28;11601;-64
2022/12/15 11:05:53;;;;;;;;;17.75;17.50;;;;;1.21;77.13;100866.69;5070567;28;12269;-64
2022/12/15 11:08:21;;;;;;;;;26.50;26.25;;;;;1.19;77.35;100866.00;5071121;28;11555;-64
2022/12/15 11:14:05;;;;;;;;;21.00;18.25;;;;;1.31;77.43;100862.28;5070115;28;11558;-64
2022/12/15 11:16:32;;;;;;;;;18.50;17.25;;;;;1.41;77.24;100863.13;5070456;28;11548;-64
2022/12/15 11:19:10;;;;;;;;;21.25;18.50;;;;;1.49;77.27;100868.59;5070513;28;12394;-64
2022/12/15 11:21:46;;;;;;;;;16.00;16.00;;;;;1.59;77.15;100866.00;5070287;28;11618;-64
2022/12/15 11:24:21;;;;;;;;;24.50;24.25;;;;;1.64;77.50;100861.13;5070454;28;11560;-64
2022/12/15 11:26:47;;;;;;;;;21.25;20.00;;;;;1.68;77.05;100869.66;5069933;28;11555;-64
2022/12/15 11:29:22;;;;;;;;;19.50;18.50;;;;;1.70;76.87;100862.38;5070455;28;11551;-64
2022/12/15 11:31:51;;;;;;;;;27.75;25.25;;;;;1.67;77.12;100860.84;5069474;28;12323;-64
2022/12/15 11:34:26;;;;;;;;;19.00;19.00;;;;;1.69;76.91;100863.38;5069939;28;11578;-64
2022/12/15 11:37:17;;;;;;;;;22.25;18.50;;;;;1.69;76.80;100869.50;5050509;28;11583;-61
2022/12/15 11:40:22;;;;;;;;;30.25;24.75;;;;;1.70;77.33;100862.38;5072208;28;11591;-64
2022/12/15 11:43:04;;;;;;;;;25.00;23.25;;;;;1.73;77.36;100873.56;5070295;28;11584;-64
2022/12/15 11:45:53;;;;;;;;;17.25;15.50;;;;;1.81;77.22;100864.09;5069523;28;11604;-64
2022/12/15 11:48:25;;;;;;;;;18.25;18.25;;;;;1.90;77.72;100855.28;5070127;28;12339;-63
2022/12/15 11:51:05;;;;;;;;;16.50;15.75;;;;;1.98;77.02;100858.97;5070034;28;11579;-64
2022/12/15 11:53:46;;;;;;;;;22.00;20.75;;;;;1.98;77.19;100858.09;5069901;28;11542;-63
2022/12/15 11:56:43;;;;;;;;;23.75;22.00;;;;;1.92;76.65;100859.50;5070070;28;11560;-64
2022/12/15 11:59:36;;;;;;;;;21.75;20.00;;;;;1.92;76.96;100866.63;5070648;28;11600;-65
2022/12/15 12:02:33;;;;;;;;;21.25;20.00;;;;;1.91;76.78;100859.66;5049969;28;11589;-64
2022/12/15 12:05:25;;;;;;;;;27.50;22.00;;;;;1.91;77.03;100864.97;5055401;28;12438;-65
2022/12/15 12:08:06;;;;;;;;;20.00;18.50;;;;;1.91;77.10;100855.19;5070208;28;11546;-64
2022/12/15 12:10:48;;;;;;;;;26.75;24.00;;;;;1.90;77.22;100866.75;5068317;28;11559;-64
2022/12/15 12:13:29;;;;;;;;;32.25;24.25;;;;;1.91;77.14;100857.84;5069790;28;12267;-63
2022/12/15 12:16:11;;;;;;;;;29.25;19.75;;;;;1.90;77.51;100865.91;5069445;28;11582;-63
2022/12/15 12:18:59;;;;;;;;;25.00;23.25;;;;;1.90;77.77;100856.13;5069920;28;11681;-65
2022/12/15 12:21:35;;;;;;;;;25.25;23.25;;;;;1.93;77.40;100855.03;5067223;28;11563;-65
2022/12/15 12:24:12;;;;;;;;;31.50;22.50;;;;;1.94;77.42;100854.88;5069643;28;11561;-65
2022/12/15 12:26:50;;;;;;;;;30.00;24.50;;;;;1.96;77.46;100849.44;5070634;28;11585;-64
2022/12/15 12:29:43;;;;;;;;;24.50;22.00;;;;;1.95;77.41;100843.31;5071653;28;11596;-66
2022/12/15 12:32:47;;;;;;;;;25.25;21.75;;;;;1.96;77.32;100839.66;5049956;28;11581;-64
2022/12/15 12:35:36;;;;;;;;;28.50;26.00;;;;;2.04;77.53;100831.00;5057498;28;11694;-64
2022/12/15 12:38:06;;;;;;;;;20.75;20.75;;;;;2.14;77.70;100825.69;5069780;28;11572;-64
2022/12/15 12:40:44;;;;;;;;;29.50;25.75;;;;;2.23;77.75;100823.06;5069691;28;11689;-63
2022/12/15 12:43:24;;;;;;;;;22.50;22.50;;;;;2.36;77.34;100820.09;5067735;28;11596;-64
2022/12/15 12:46:09;;;;;;;;;20.75;19.50;;;;;2.48;77.22;100816.31;5069657;28;11589;-65
2022/12/15 12:49:04;;;;;;;;;22.00;19.50;;;;;2.58;77.10;100823.41;5069987;28;11574;-65
2022/12/15 12:51:36;;;;;;;;;21.00;18.75;;;;;2.68;76.60;100824.25;5043385;28;11587;-67
2022/12/15 12:54:34;;;;;;;;;20.50;18.50;;;;;2.75;76.12;100812.03;5069112;28;11549;-65
2022/12/15 12:57:35;;;;;;;;;24.25;23.25;;;;;2.79;76.27;100805.44;5069318;28;11726;-66
2022/12/15 13:00:04;;;;;;;;;24.25;20.50;;;;;2.87;76.16;100808.22;5069291;28;11575;-65
2022/12/15 13:02:33;;;;;;;;;21.75;19.00;;;;;2.92;76.24;100795.34;5069579;28;11582;-65
2022/12/15 13:05:20;;;;;;;;;21.00;18.00;;;;;2.94;76.02;100792.53;5069326;28;11561;-65
2022/12/15 13:08:13;;;;;;;;;24.00;23.00;;;;;3.00;75.92;100791.09;5069650;28;11558;-67
2022/12/15 13:10:45;;;;;;;;;23.00;21.25;;;;;3.03;75.84;100796.13;5030525;28;11566;-66
2022/12/15 13:13:28;;;;;;;;;26.25;23.50;;;;;3.09;75.60;100796.41;5068475;28;11554;-66
2022/12/15 13:16:16;;;;;;;;;14.75;10.75;;;;;3.11;75.65;100793.56;5068920;28;11598;-65
2022/12/15 13:19:03;;;;;;;;;20.50;18.00;;;;;3.14;75.09;100794.13;5069343;28;11608;-65
2022/12/15 13:21:42;;;;;;;;;18.50;18.50;;;;;3.12;75.51;100782.81;5070581;28;11553;-65
2022/12/15 13:24:24;;;;;;;;;20.00;18.50;;;;;3.10;75.28;100784.75;5072800;28;11616;-66
2022/12/15 13:26:50;;;;;;;;;20.00;18.75;;;;;3.04;75.42;100788.03;5071991;28;11580;-65
2022/12/15 13:29:22;;;;;;;;;17.75;16.00;;;;;3.02;75.37;100792.63;5072720;28;11611;-67
2022/12/15 13:31:49;;;;;;;;;21.50;16.50;;;;;2.98;75.44;100784.09;5057091;28;11595;-64
2022/12/15 13:34:23;;;;;;;;;13.75;12.75;;;;;2.98;75.57;100783.28;5072144;28;11653;-64
2022/12/15 13:36:52;;;;;;;;;12.00;12.00;;;;;2.98;75.49;100786.78;5057238;28;12270;-65
2022/12/15 13:39:20;;;;;;;;;16.00;16.00;;;;;2.98;75.83;100788.59;5071846;28;11671;-66
2022/12/15 13:41:47;;;;;;;;;15.50;14.50;;;;;3.00;75.72;100788.44;5071732;28;11570;-65
2022/12/15 13:44:43;;;;;;;;;16.25;16.25;;;;;2.96;75.72;100793.25;5054256;28;11740;-66
2022/12/15 13:47:26;;;;;;;;;16.25;16.00;;;;;2.96;75.73;100801.22;5072567;28;11596;-65
2022/12/15 13:50:29;;;;;;;;;23.50;22.25;;;;;2.92;76.11;100800.66;5072445;28;11572;-66
2022/12/15 13:53:00;;;;;;;;;22.25;19.25;;;;;2.91;76.19;100788.34;5072543;28;11558;-65
2022/12/15 13:56:03;;;;;;;;;22.50;20.25;;;;;2.91;76.23;100788.34;5072035;28;11661;-64
2022/12/15 13:58:38;;;;;;;;;17.50;16.75;;;;;2.93;76.18;100781.06;5072467;28;11566;-65
2022/12/15 14:01:18;;;;;;;;;16.75;14.00;;;;;2.93;76.16;100774.91;5072012;28;11639;-65
2022/12/15 14:04:18;;;;;;;;;15.50;14.00;;;;;2.94;75.94;100774.75;5071934;28;11664;-65